Time;durP1;ratioP1;P1;durP2;ratioP2;P2;SDS_P1;SDS_P2;PMS_P1;PMS_P2;Temp;Humidity;BMP_temperature;BMP_pressure;BME280_temperature;BME280_humidity;BME280_pressure;Samples;Min_cycle;Max_cycle;Signal;HPM_P1;HPM_P2
2023/10/20 00:01:01;;;;;;;1.65;0.55;;;;;;;21.77;78.26;95302.25;5055227;28;20017;-47
2023/10/20 00:03:27;;;;;;;0.40;0.30;;;;;;;21.76;76.64;95271.34;5073192;28;20024;-47
2023/10/20 00:05:53;;;;;;;3.28;0.40;;;;;;;21.71;75.67;95264.44;5055112;28;20170;-47
2023/10/20 00:08:19;;;;;;;4.75;2.03;;;;;;;21.69;75.77;95263.22;5072696;28;20456;-46
2023/10/20 00:10:45;;;;;;;3.33;0.60;;;;;;;21.95;75.46;95278.50;5073369;28;20033;-47
2023/10/20 00:13:11;;;;;;;0.40;0.28;;;;;;;21.86;75.26;95283.34;5055033;28;20513;-47
2023/10/20 00:15:36;;;;;;;1.65;0.50;;;;;;;21.77;78.15;95291.56;5072973;28;20117;-47
2023/10/20 00:18:03;;;;;;;2.17;0.63;;;;;;;21.82;80.40;95277.16;5072871;28;20553;-47
2023/10/20 00:20:29;;;;;;;2.90;1.23;;;;;;;21.90;79.83;95276.91;5072833;28;20027;-47
2023/10/20 00:22:55;;;;;;;3.33;0.82;;;;;;;21.96;79.39;95266.72;5072813;28;20021;-47
2023/10/20 00:25:21;;;;;;;0.90;0.40;;;;;;;21.89;73.51;95251.38;5072813;28;20032;-47
2023/10/20 00:27:47;;;;;;;1.48;1.05;;;;;;;21.70;74.62;95256.78;5072694;28;20027;-47
2023/10/20 00:30:13;;;;;;;4.28;0.90;;;;;;;21.72;78.49;95262.53;5054687;28;20024;-47
2023/10/20 00:32:43;;;;;;;1.70;0.50;;;;;;;21.82;70.12;95251.25;5072575;28;20032;-47
2023/10/20 00:35:09;;;;;;;0.43;0.40;;;;;;;21.85;72.25;95218.50;5054406;28;20439;-47
2023/10/20 00:37:38;;;;;;;0.52;0.20;;;;;;;21.97;66.91;95212.16;5072485;28;20060;-47
2023/10/20 00:40:11;;;;;;;0.50;0.30;;;;;;;22.17;65.70;95206.72;5072444;28;20024;-47
2023/10/20 00:42:38;;;;;;;2.17;0.40;;;;;;;22.39;65.26;95186.44;5072396;28;20022;-47
2023/10/20 00:45:05;;;;;;;2.90;0.38;;;;;;;22.54;65.10;95198.84;5054397;28;20050;-47
2023/10/20 00:47:32;;;;;;;0.65;0.30;;;;;;;22.70;63.40;95202.09;5072262;28;20017;-47
2023/10/20 00:49:59;;;;;;;2.25;0.40;;;;;;;22.86;62.78;95191.19;5054349;28;20024;-47
2023/10/20 00:52:26;;;;;;;57.97;52.90;;;;;;;22.98;63.68;95195.53;5054259;28;20024;-47
2023/10/20 00:54:53;;;;;;;3.78;2.72;;;;;;;23.07;63.62;95176.53;5072151;28;20059;-47
2023/10/20 00:57:19;;;;;;;1.83;1.60;;;;;;;23.10;61.13;95167.75;5054218;28;20016;-47
2023/10/20 00:59:44;;;;;;;1.80;0.60;;;;;;;23.14;62.97;95160.56;5072191;28;20108;-47
2023/10/20 01:02:12;;;;;;;1.00;0.30;;;;;;;23.13;62.50;95146.41;5054058;28;20024;-47
2023/10/20 01:04:38;;;;;;;0.60;0.10;;;;;;;23.22;61.88;95137.28;5072386;28;20032;-47
2023/10/20 01:07:03;;;;;;;1.63;0.38;;;;;;;23.21;61.12;95143.81;5071924;28;20033;-47
2023/10/20 01:09:29;;;;;;;0.63;0.17;;;;;;;23.26;60.51;95117.47;5071786;28;20528;-47
2023/10/20 01:11:55;;;;;;;1.08;0.20;;;;;;;23.21;61.34;95099.09;5054114;28;20034;-47
2023/10/20 01:14:21;;;;;;;0.43;0.20;;;;;;;23.27;60.13;95118.25;5037488;28;20021;-47
2023/10/20 01:16:47;;;;;;;0.73;0.20;;;;;;;23.31;59.78;95108.34;5071970;28;20379;-47
2023/10/20 01:19:14;;;;;;;5.88;5.35;;;;;;;23.06;62.49;95124.16;5071840;28;20028;-47
2023/10/20 01:21:40;;;;;;;20.90;6.38;;;;;;;22.93;62.85;95111.03;5071822;28;20028;-47
2023/10/20 01:24:06;;;;;;;3.13;1.15;;;;;;;22.91;61.18;95107.19;5053856;28;20031;-47
2023/10/20 01:26:32;;;;;;;2.05;0.75;;;;;;;22.82;63.79;95106.72;5053723;28;20406;-47
2023/10/20 01:28:59;;;;;;;2.53;0.93;;;;;;;22.69;63.75;95106.22;5053994;28;20028;-47
2023/10/20 01:31:25;;;;;;;1.67;0.20;;;;;;;22.49;64.80;95097.63;5071755;28;20107;-47
2023/10/20 01:33:51;;;;;;;0.65;0.10;;;;;;;22.18;64.90;95104.88;5071754;28;20577;-47
2023/10/20 01:36:17;;;;;;;0.20;0.20;;;;;;;21.99;67.05;95102.34;5071689;28;20120;-47
2023/10/20 01:38:44;;;;;;;5.53;0.73;;;;;;;21.85;68.46;95089.59;5053688;28;20115;-47
2023/10/20 01:41:10;;;;;;;0.98;0.10;;;;;;;21.86;68.74;95096.47;5071550;28;20029;-47
2023/10/20 01:43:36;;;;;;;7.82;0.57;;;;;;;21.65;69.53;95096.94;5071625;28;20044;-47
2023/10/20 01:46:02;;;;;;;1.15;0.40;;;;;;;21.49;70.59;95097.09;5071792;28;20024;-47
2023/10/20 01:48:27;;;;;;;0.70;0.22;;;;;;;21.58;74.16;95086.19;5075679;28;20020;-47
2023/10/20 01:50:53;;;;;;;0.10;0.10;;;;;;;21.62;70.67;95079.75;5075710;28;20028;-47
2023/10/20 01:53:19;;;;;;;0.98;0.40;;;;;;;21.56;73.07;95094.53;5057686;28;20025;-47
2023/10/20 01:55:51;;;;;;;0.75;0.20;;;;;;;21.69;73.23;95077.19;5075590;28;20024;-47
2023/10/20 01:58:18;;;;;;;0.40;0.20;;;;;;;21.76;70.80;95083.75;5075609;28;20032;-47
2023/10/20 02:00:48;;;;;;;0.50;0.13;;;;;;;21.75;71.67;95077.63;5057636;28;20021;-47
2023/10/20 02:03:14;;;;;;;1.55;0.10;;;;;;;21.70;71.60;95094.72;5075430;28;20023;-47
2023/10/20 02:05:39;;;;;;;2.60;0.40;;;;;;;21.50;74.19;95090.63;5075416;28;20465;-47
2023/10/20 02:08:08;;;;;;;1.10;0.52;;;;;;;21.29;77.96;95093.75;5075033;28;20021;-48
2023/10/20 02:10:35;;;;;;;0.40;0.17;;;;;;;21.17;78.57;95097.38;5075437;28;20023;-47
2023/10/20 02:13:01;;;;;;;4.13;0.82;;;;;;;20.79;78.81;95096.34;5057311;28;20402;-46
2023/10/20 02:15:27;;;;;;;3.70;0.30;;;;;;;20.33;81.05;95072.28;5075162;28;20016;-46
2023/10/20 02:17:52;;;;;;;0.93;0.20;;;;;;;19.95;83.32;95057.84;5057446;28;20036;-46
2023/10/20 02:20:22;;;;;;;0.93;0.52;;;;;;;19.61;84.52;95054.84;5075150;28;20028;-46
2023/10/20 02:22:55;;;;;;;1.55;0.30;;;;;;;19.35;87.70;95050.88;5057088;28;20026;-46
2023/10/20 02:25:21;;;;;;;2.90;1.08;;;;;;;19.18;89.61;95061.88;5075034;28;20020;-47
2023/10/20 02:27:47;;;;;;;1.15;0.30;;;;;;;19.24;93.28;95043.78;5057213;28;20025;-47
2023/10/20 02:30:14;;;;;;;0.40;0.13;;;;;;;19.22;91.93;95040.72;5074947;28;20071;-46
2023/10/20 02:32:43;;;;;;;3.20;0.95;;;;;;;19.18;92.52;95039.84;5057144;28;20025;-47
2023/10/20 02:35:09;;;;;;;1.88;0.40;;;;;;;19.22;94.63;95043.38;5074798;28;20103;-47
2023/10/20 02:37:35;;;;;;;2.30;0.98;;;;;;;19.27;95.25;95046.50;5074851;28;20021;-47
2023/10/20 02:40:04;;;;;;;0.95;0.30;;;;;;;19.41;96.47;95066.56;5074692;28;20024;-46
2023/10/20 02:42:33;;;;;;;0.22;0.17;;;;;;;19.65;97.78;95100.91;5074733;28;20433;-47
2023/10/20 02:44:59;;;;;;;1.08;0.57;;;;;;;19.78;97.39;95119.44;5074734;28;20036;-47
2023/10/20 02:47:25;;;;;;;1.83;0.43;;;;;;;19.92;96.53;95144.50;5056579;28;20400;-47
2023/10/20 02:49:58;;;;;;;3.22;0.50;;;;;;;19.94;96.22;95150.25;5056684;28;20120;-45
2023/10/20 02:52:25;;;;;;;5.60;0.90;;;;;;;19.52;98.21;95144.72;5074531;28;20025;-45
2023/10/20 02:54:54;;;;;;;8.32;1.75;;;;;;;18.86;100.00;95178.03;5074548;28;20478;-45
2023/10/20 02:57:21;;;;;;;10.77;1.17;;;;;;;18.16;100.00;95184.44;5056428;28;20028;-44
2023/10/20 02:59:48;;;;;;;11.93;1.63;;;;;;;17.57;100.00;95197.06;5074725;28;20024;-44
2023/10/20 03:02:15;;;;;;;13.32;3.30;;;;;;;17.19;100.00;95201.88;5074391;28;20053;-44
2023/10/20 03:04:41;;;;;;;7.72;1.73;;;;;;;17.04;100.00;95232.41;5074345;28;20029;-44
2023/10/20 03:07:08;;;;;;;9.50;1.95;;;;;;;16.85;100.00;95231.00;5056441;28;20117;-44
2023/10/20 03:09:35;;;;;;;2.88;0.82;;;;;;;16.71;100.00;95256.97;5074068;28;20040;-43
2023/10/20 03:12:02;;;;;;;3.67;1.08;;;;;;;16.46;100.00;95250.75;5074191;28;20074;-44
2023/10/20 03:14:31;;;;;;;4.38;0.98;;;;;;;16.39;100.00;95261.88;5074177;28;20047;-44
2023/10/20 03:16:57;;;;;;;7.07;2.03;;;;;;;16.12;100.00;95253.31;5073972;28;20035;-45
2023/10/20 03:19:23;;;;;;;2.10;0.80;;;;;;;16.11;100.00;95264.22;5074040;28;20141;-44
2023/10/20 03:21:48;;;;;;;3.83;1.45;;;;;;;16.03;100.00;95243.88;5073970;28;20482;-44
2023/10/20 03:24:14;;;;;;;3.65;0.80;;;;;;;16.05;100.00;95236.41;5073995;28;20032;-44
2023/10/20 03:26:42;;;;;;;6.57;0.60;;;;;;;15.80;100.00;95260.03;5073853;28;20021;-44
2023/10/20 03:29:07;;;;;;;4.03;0.90;;;;;;;15.68;100.00;95191.16;5073848;28;20119;-44
2023/10/20 03:31:34;;;;;;;0.73;0.60;;;;;;;15.75;100.00;95213.41;5055796;28;20115;-44
2023/10/20 03:34:00;;;;;;;2.95;0.50;;;;;;;15.75;100.00;95212.59;5073857;28;20054;-44
2023/10/20 03:36:27;;;;;;;7.40;0.90;;;;;;;15.69;100.00;95219.13;5055772;28;20020;-45
2023/10/20 03:38:53;;;;;;;3.00;1.08;;;;;;;15.63;100.00;95225.69;5073627;28;20119;-45
2023/10/20 03:41:19;;;;;;;4.55;0.80;;;;;;;15.73;100.00;95228.78;5055709;28;20447;-45
2023/10/20 03:43:44;;;;;;;2.85;1.73;;;;;;;15.84;100.00;95258.28;5073864;28;20398;-45
2023/10/20 03:46:13;;;;;;;6.85;1.48;;;;;;;15.81;100.00;95264.19;5055552;28;20029;-45
2023/10/20 03:48:42;;;;;;;4.03;0.95;;;;;;;15.74;100.00;95264.72;5055410;28;20031;-45
2023/10/20 03:51:12;;;;;;;3.50;1.10;;;;;;;15.68;100.00;95255.38;5073471;28;20100;-45
2023/10/20 03:53:52;;;;;;;4.07;1.20;;;;;;;15.82;100.00;95265.00;5073354;28;20032;-45
2023/10/20 03:56:22;;;;;;;3.20;0.65;;;;;;;15.88;100.00;95283.00;5073330;28;20449;-45
2023/10/20 03:58:47;;;;;;;7.78;0.60;;;;;;;15.65;100.00;95292.22;5073304;28;20546;-45
2023/10/20 04:01:13;;;;;;;6.18;0.77;;;;;;;15.52;100.00;95300.03;5073178;28;20135;-45
2023/10/20 04:03:40;;;;;;;18.90;1.05;;;;;;;15.42;100.00;95326.81;5038689;28;20036;-45
2023/10/20 04:06:09;;;;;;;6.45;0.60;;;;;;;15.22;100.00;95328.22;5073347;28;20032;-45
2023/10/20 04:08:34;;;;;;;6.47;0.95;;;;;;;15.03;100.00;95315.38;5072382;28;20056;-45
2023/10/20 04:11:00;;;;;;;4.68;0.90;;;;;;;14.92;100.00;95296.41;5054692;28;20035;-45
2023/10/20 04:13:29;;;;;;;21.60;2.90;;;;;;;14.99;100.00;95251.06;5073044;28;20024;-45
2023/10/20 04:15:55;;;;;;;14.13;0.93;;;;;;;15.15;100.00;95248.69;5073154;28;20435;-45
2023/10/20 04:18:22;;;;;;;4.78;0.73;;;;;;;15.12;100.00;95284.44;5072952;28;20138;-45
2023/10/20 04:20:48;;;;;;;1.80;0.70;;;;;;;14.97;100.00;95243.44;5072858;28;20020;-45
2023/10/20 04:23:17;;;;;;;8.60;0.70;;;;;;;14.93;100.00;95242.53;5072855;28;20581;-45
2023/10/20 04:25:53;;;;;;;1.38;0.52;;;;;;;14.85;100.00;95248.59;5072714;28;20020;-45
2023/10/20 04:28:43;;;;;;;;;;;;;;;14.84;100.00;95233.06;5073141;28;20406;-45
2023/10/20 05:08:00;;;;;;;1.25;0.70;;;;;;;14.50;100.00;95303.19;5072051;28;20021;-46
2023/10/20 05:10:27;;;;;;;4.22;0.60;;;;;;;14.46;100.00;95315.44;5071800;28;20052;-45
2023/10/20 05:12:52;;;;;;;1.73;0.52;;;;;;;14.44;100.00;95331.56;5071890;28;20365;-46
2023/10/20 05:15:18;;;;;;;2.15;0.80;;;;;;;14.41;100.00;95341.97;5053938;28;20510;-48
2023/10/20 05:17:46;;;;;;;2.30;0.82;;;;;;;14.42;100.00;95351.44;5071917;28;20078;-48
2023/10/20 05:20:17;;;;;;;11.18;1.90;;;;;;;14.35;100.00;95343.97;5071678;28;20027;-48
2023/10/20 05:22:46;;;;;;;2.63;0.57;;;;;;;14.32;100.00;95344.59;5071586;28;20028;-48
2023/10/20 05:25:13;;;;;;;5.43;1.58;;;;;;;14.30;100.00;95352.03;5054093;28;20036;-48
2023/10/20 05:27:40;;;;;;;2.00;0.50;;;;;;;14.48;100.00;95358.91;5071625;28;20115;-48
2023/10/20 05:30:07;;;;;;;8.63;1.20;;;;;;;14.51;100.00;95365.44;5053723;28;20498;-48
2023/10/20 05:32:34;;;;;;;2.60;1.05;;;;;;;14.52;100.00;95375.66;5071721;28;20506;-48
2023/10/20 05:35:03;;;;;;;5.60;1.83;;;;;;;14.55;100.00;95377.72;5071699;28;20021;-48
2023/10/20 05:37:30;;;;;;;1.80;1.40;;;;;;;14.70;100.00;95392.34;5053689;28;20120;-47
2023/10/20 05:39:57;;;;;;;3.35;0.60;;;;;;;14.65;100.00;95394.34;5037100;28;20031;-48
2023/10/20 05:42:23;;;;;;;2.83;0.80;;;;;;;14.56;100.00;95397.75;5071662;28;20028;-48
2023/10/20 05:47:33;;;;;;;4.10;0.80;;;;;;;14.43;100.00;95411.81;5071643;28;20031;-48
2023/10/20 05:50:01;;;;;;;1.33;0.88;;;;;;;14.36;100.00;95411.47;5053495;28;20441;-47
2023/10/20 05:52:27;;;;;;;5.15;3.38;;;;;;;14.33;100.00;95414.75;5053844;28;20455;-48
2023/10/20 05:54:54;;;;;;;9.60;2.45;;;;;;;14.63;100.00;95407.06;5071484;28;20436;-48
2023/10/20 05:57:22;;;;;;;5.40;2.45;;;;;;;14.94;100.00;95399.06;5071495;28;20027;-48
2023/10/20 05:59:47;;;;;;;4.28;2.67;;;;;;;15.17;100.00;95411.06;5071408;28;20035;-47
2023/10/20 06:02:13;;;;;;;6.63;3.13;;;;;;;15.42;100.00;95416.66;5071451;28;20396;-47
2023/10/20 06:04:39;;;;;;;8.07;3.60;;;;;;;15.62;100.00;95411.81;5053292;28;20563;-48
2023/10/20 06:07:05;;;;;;;4.25;2.28;;;;;;;15.57;100.00;95402.16;5053386;28;20028;-47
2023/10/20 06:09:30;;;;;;;8.00;1.55;;;;;;;15.37;100.00;95406.22;5053299;28;20517;-47
2023/10/20 06:11:56;;;;;;;4.15;1.17;;;;;;;15.18;100.00;95417.88;5071353;28;20040;-47
2023/10/20 06:14:23;;;;;;;4.03;0.85;;;;;;;15.29;100.00;95426.31;5053360;28;20048;-46
2023/10/20 06:16:50;;;;;;;5.55;1.15;;;;;;;15.21;100.00;95434.97;5071270;28;20487;-47
2023/10/20 06:19:15;;;;;;;2.78;0.60;;;;;;;15.03;100.00;95451.88;5071346;28;20021;-47
2023/10/20 06:21:45;;;;;;;4.72;0.95;;;;;;;14.74;100.00;95461.16;5053316;28;20025;-47
2023/10/20 06:24:11;;;;;;;3.85;0.80;;;;;;;14.56;100.00;95461.09;5053838;28;20025;-47
2023/10/20 06:26:37;;;;;;;4.63;1.83;;;;;;;14.50;100.00;95469.41;5071067;28;20059;-47
2023/10/20 06:29:16;;;;;;;4.30;1.00;;;;;;;14.45;100.00;95472.97;5071247;28;20437;-47
2023/10/20 06:31:42;;;;;;;2.58;0.85;;;;;;;14.40;100.00;95457.28;5071162;28;20185;-47
2023/10/20 06:34:23;;;;;;;2.17;0.88;;;;;;;14.36;100.00;95451.03;5056944;28;20546;-47
2023/10/20 06:37:08;;;;;;;4.80;1.38;;;;;;;14.39;100.00;95466.28;5074832;28;20035;-47
2023/10/20 06:39:37;;;;;;;3.28;0.68;;;;;;;14.35;100.00;95481.16;5074857;28;20056;-46
2023/10/20 06:42:03;;;;;;;4.38;0.40;;;;;;;14.29;100.00;95471.81;5074714;28;20036;-47
2023/10/20 06:44:30;;;;;;;2.65;0.65;;;;;;;14.25;100.00;95490.09;5056693;28;20486;-46
2023/10/20 06:46:56;;;;;;;2.15;0.75;;;;;;;14.22;100.00;95503.88;5074776;28;20036;-46
2023/10/20 06:49:23;;;;;;;4.72;0.90;;;;;;;14.23;100.00;95499.41;5074694;28;20146;-47
2023/10/20 06:51:49;;;;;;;0.73;0.50;;;;;;;14.22;100.00;95503.13;5074832;28;20398;-47
2023/10/20 06:54:16;;;;;;;5.63;0.57;;;;;;;14.21;100.00;95512.88;5074508;28;20031;-47
2023/10/20 06:56:42;;;;;;;5.05;3.22;;;;;;;14.22;100.00;95529.47;5074402;28;20031;-48
2023/10/20 06:59:12;;;;;;;23.73;8.05;;;;;;;14.19;100.00;95539.56;5056677;28;20020;-48
2023/10/20 07:01:38;;;;;;;19.92;8.77;;;;;;;14.18;100.00;95542.50;5057510;28;20029;-48
2023/10/20 07:04:06;;;;;;;3.28;1.20;;;;;;;14.18;100.00;95547.75;5074407;28;20048;-48
2023/10/20 07:06:32;;;;;;;4.20;2.58;;;;;;;14.18;100.00;95567.03;5074349;28;20024;-48
2023/10/20 07:08:57;;;;;;;0.00;0.00;;;;;;;14.19;100.00;95580.97;5074111;28;20391;-49
2023/10/20 07:11:24;;;;;;;0.00;0.00;;;;;;;14.19;100.00;95587.03;5056241;28;20028;-48
2023/10/20 07:13:50;;;;;;;0.00;0.00;;;;;;;14.20;100.00;95582.53;5074507;28;20077;-48
2023/10/20 07:16:15;;;;;;;0.00;0.00;;;;;;;14.17;100.00;95586.56;5056149;28;20025;-49
2023/10/20 07:18:41;;;;;;;0.00;0.00;;;;;;;14.18;100.00;95588.13;5074071;28;20102;-48
2023/10/20 07:21:07;;;;;;;0.00;0.00;;;;;;;14.21;100.00;95597.28;5074075;28;20021;-49
2023/10/20 07:23:32;;;;;;;0.00;0.00;;;;;;;14.19;100.00;95589.66;5074065;28;20131;-48
2023/10/20 07:25:58;;;;;;;0.00;0.00;;;;;;;14.19;100.00;95600.22;5074032;28;20028;-48
2023/10/20 07:28:23;;;;;;;0.00;0.00;;;;;;;14.18;100.00;95603.94;5073887;28;20570;-48
2023/10/20 07:30:50;;;;;;;0.00;0.00;;;;;;;14.18;100.00;95603.94;5055960;28;20028;-48
2023/10/20 07:33:16;;;;;;;0.00;0.00;;;;;;;14.18;100.00;95630.31;5073825;28;20056;-48
2023/10/20 07:35:42;;;;;;;0.15;0.15;;;;;;;14.16;100.00;95637.72;5073868;28;20055;-48
2023/10/20 07:38:08;;;;;;;0.00;0.00;;;;;;;14.16;100.00;95635.09;5073838;28;20059;-47
2023/10/20 07:40:37;;;;;;;0.00;0.00;;;;;;;14.17;100.00;95676.22;5073758;28;20533;-48
2023/10/20 07:43:06;;;;;;;0.00;0.00;;;;;;;14.18;100.00;95666.44;5073711;28;20029;-48
2023/10/20 07:45:38;;;;;;;0.00;0.00;;;;;;;14.17;100.00;95675.44;5072941;28;20079;-48
2023/10/20 07:48:05;;;;;;;0.00;0.00;;;;;;;14.17;100.00;95678.09;5073555;28;20029;-48
2023/10/20 07:50:31;;;;;;;6.00;1.77;;;;;;;14.17;100.00;95672.81;5055865;28;20033;-48
2023/10/20 07:52:57;;;;;;;0.00;0.00;;;;;;;14.16;100.00;95665.97;5073504;28;20075;-48
2023/10/20 07:55:22;;;;;;;0.00;0.00;;;;;;;14.15;100.00;95659.91;5055402;28;20101;-48
2023/10/20 07:57:48;;;;;;;0.00;0.00;;;;;;;14.14;100.00;95666.25;5073269;28;20028;-48
2023/10/20 08:00:14;;;;;;;0.00;0.00;;;;;;;14.13;100.00;95685.81;5055338;28;20395;-48
2023/10/20 08:02:41;;;;;;;0.00;0.00;;;;;;;14.14;100.00;95676.81;5055342;28;20059;-48
2023/10/20 08:05:08;;;;;;;0.00;0.00;;;;;;;14.15;100.00;95688.16;5073111;28;20024;-48
2023/10/20 08:07:34;;;;;;;0.00;0.00;;;;;;;14.18;100.00;95703.38;5073073;28;20031;-48
2023/10/20 08:10:00;;;;;;;0.00;0.00;;;;;;;14.21;100.00;95731.81;5035660;28;20030;-48
2023/10/20 08:12:25;;;;;;;0.00;0.00;;;;;;;14.22;100.00;95735.22;5031986;28;20033;-48
2023/10/20 08:14:51;;;;;;;0.00;0.00;;;;;;;14.22;100.00;95719.38;5033165;28;20030;-48
2023/10/20 08:17:16;;;;;;;0.00;0.00;;;;;;;14.19;100.00;95712.84;5031808;28;20030;-48
2023/10/20 08:19:45;;;;;;;0.00;0.00;;;;;;;14.19;100.00;95723.41;5033221;28;20032;-48
2023/10/20 08:22:11;;;;;;;0.00;0.00;;;;;;;14.17;100.00;95736.88;5033020;28;20036;-48
2023/10/20 08:24:37;;;;;;;0.00;0.00;;;;;;;14.13;100.00;95737.78;5031713;28;20116;-48
2023/10/20 08:27:02;;;;;;;0.00;0.00;;;;;;;14.11;100.00;95734.66;5032784;28;20025;-48
2023/10/20 08:29:28;;;;;;;0.00;0.00;;;;;;;14.11;100.00;95750.47;5032862;28;20021;-48
2023/10/20 08:31:54;;;;;;;0.00;0.00;;;;;;;14.11;100.00;95767.06;5032825;28;20498;-48
2023/10/20 08:34:20;;;;;;;0.00;0.00;;;;;;;14.13;100.00;95780.75;5032792;28;20033;-48
2023/10/20 08:36:46;;;;;;;0.00;0.00;;;;;;;14.14;100.00;95782.28;5032749;28;20048;-49
2023/10/20 08:39:19;;;;;;;0.00;0.00;;;;;;;14.13;100.00;95775.47;5031467;28;20033;-48
2023/10/20 08:41:45;;;;;;;0.00;0.00;;;;;;;14.13;100.00;95769.44;5032677;28;20028;-49
2023/10/20 08:44:14;;;;;;;0.00;0.00;;;;;;;14.11;100.00;95750.47;5031455;28;20129;-49
2023/10/20 08:46:40;;;;;;;0.00;0.00;;;;;;;14.11;100.00;95737.28;5032768;28;20407;-49
2023/10/20 08:49:07;;;;;;;0.73;0.73;;;;;;;14.08;100.00;95725.47;5031520;28;20029;-48
2023/10/20 08:51:35;;;;;;;0.00;0.00;;;;;;;14.01;100.00;95701.38;5032448;28;20044;-48
2023/10/20 08:54:01;;;;;;;0.00;0.00;;;;;;;14.01;100.00;95685.53;5032402;28;20025;-48
2023/10/20 08:56:27;;;;;;;0.00;0.00;;;;;;;14.02;100.00;95681.03;5031262;28;20116;-48
2023/10/20 08:58:53;;;;;;;4.30;1.98;;;;;;;14.07;100.00;95688.84;5032356;28;20026;-48
2023/10/20 09:01:19;;;;;;;0.00;0.00;;;;;;;14.10;100.00;95680.34;5032585;28;20136;-48
2023/10/20 09:03:48;;;;;;;0.00;0.00;;;;;;;14.12;100.00;95659.72;5031022;28;20480;-48
2023/10/20 09:06:14;;;;;;;0.10;0.10;;;;;;;14.16;100.00;95637.72;5032203;28;20084;-48
2023/10/20 09:08:49;;;;;;;0.00;0.00;;;;;;;14.18;100.00;95634.78;5042278;28;20527;-48
2023/10/20 09:11:15;;;;;;;;;;;;;;;14.13;100.00;95619.09;5072432;28;20036;-47
2023/10/20 09:13:43;;;;;;;0.00;0.00;;;;;;;14.12;100.00;95628.84;5071971;28;19908;-47
2023/10/20 09:16:10;;;;;;;0.00;0.00;;;;;;;14.13;100.00;95638.34;5072144;28;20028;-47
2023/10/20 09:18:48;;;;;;;0.85;0.63;;;;;;;14.13;100.00;95659.44;5053959;28;20028;-47
2023/10/20 09:21:15;;;;;;;0.00;0.00;;;;;;;14.19;100.00;95668.03;5071829;28;20474;-48
2023/10/20 09:23:54;;;;;;;0.00;0.00;;;;;;;14.22;100.00;95666.63;5053873;28;20519;-48
2023/10/20 09:26:20;;;;;;;0.00;0.00;;;;;;;14.33;100.00;95674.03;5071947;28;20024;-48
2023/10/20 09:28:50;;;;;;;0.00;0.00;;;;;;;14.38;100.00;95681.81;5053714;28;20036;-47
2023/10/20 09:31:18;;;;;;;0.00;0.00;;;;;;;14.49;100.00;95692.16;5071758;28;20025;-48
2023/10/20 09:33:44;;;;;;;0.00;0.00;;;;;;;14.57;100.00;95720.50;5071719;28;20033;-48
2023/10/20 09:36:11;;;;;;;0.00;0.00;;;;;;;14.71;100.00;95731.00;5071733;28;20025;-48
2023/10/20 09:38:37;;;;;;;0.00;0.00;;;;;;;14.81;100.00;95730.78;5071759;28;20036;-49
2023/10/20 09:41:12;;;;;;;0.00;0.00;;;;;;;14.92;100.00;95745.28;5053725;28;20094;-48
2023/10/20 09:43:49;;;;;;;0.00;0.00;;;;;;;15.05;100.00;95745.50;5071695;28;20507;-48
2023/10/20 09:46:35;;;;;;;0.00;0.00;;;;;;;15.16;100.00;95750.25;5071867;28;20059;-49
2023/10/20 09:49:10;;;;;;;0.00;0.00;;;;;;;15.21;100.00;95754.63;5071675;28;20025;-49
2023/10/20 09:51:36;;;;;;;0.00;0.00;;;;;;;15.20;100.00;95761.00;5071606;28;20073;-49
2023/10/20 09:54:03;;;;;;;0.00;0.00;;;;;;;15.28;100.00;95778.75;5053695;28;20036;-49
2023/10/20 09:56:29;;;;;;;0.00;0.00;;;;;;;15.42;100.00;95794.53;5053574;28;20107;-48
2023/10/20 09:58:58;;;;;;;0.00;0.00;;;;;;;15.66;100.00;95791.56;5053579;28;20119;-49
2023/10/20 10:01:24;;;;;;;0.00;0.00;;;;;;;15.93;100.00;95784.53;5071447;28;20021;-49
2023/10/20 10:04:03;;;;;;;0.00;0.00;;;;;;;15.93;100.00;95795.13;5071560;28;20036;-48
2023/10/20 10:06:35;;;;;;;0.00;0.00;;;;;;;15.92;100.00;95796.22;5071513;28;20039;-48
2023/10/20 10:09:04;;;;;;;0.05;0.05;;;;;;;15.97;100.00;95799.47;5074628;28;20044;-48
2023/10/20 10:11:31;;;;;;;0.00;0.00;;;;;;;16.11;100.00;95804.66;5057448;28;20024;-48
2023/10/20 10:14:06;;;;;;;0.00;0.00;;;;;;;16.26;100.00;95794.75;5075461;28;20023;-48
2023/10/20 10:16:47;;;;;;;0.03;0.03;;;;;;;16.52;100.00;95794.78;5057774;28;20128;-48
2023/10/20 10:19:13;;;;;;;0.00;0.00;;;;;;;16.93;100.00;95781.13;5075327;28;20036;-49
2023/10/20 10:21:40;;;;;;;0.00;0.00;;;;;;;18.23;100.00;95779.22;5075430;28;20040;-46
2023/10/20 10:24:15;;;;;;;0.00;0.00;;;;;;;19.28;100.00;95779.22;5075147;28;20513;-46
2023/10/20 10:26:51;;;;;;;0.10;0.10;;;;;;;19.64;100.00;95777.78;5075087;28;20495;-46
2023/10/20 10:29:53;;;;;;;0.00;0.00;;;;;;;20.08;100.00;95775.41;5075091;28;20043;-46
2023/10/20 10:32:25;;;;;;;0.22;0.22;;;;;;;20.52;100.00;95774.78;5070031;28;20098;-46
2023/10/20 10:34:52;;;;;;;0.00;0.00;;;;;;;20.58;100.00;95772.66;5075042;28;20032;-46
2023/10/20 10:37:35;;;;;;;0.00;0.00;;;;;;;20.24;100.00;95790.69;5074888;28;20064;-46
2023/10/20 10:40:15;;;;;;;0.60;0.55;;;;;;;19.82;100.00;95749.09;5075081;28;20032;-49
2023/10/20 10:42:51;;;;;;;0.00;0.00;;;;;;;19.66;100.00;95783.53;5074777;28;20122;-47
2023/10/20 10:45:30;;;;;;;0.00;0.00;;;;;;;19.53;100.00;95793.34;5074843;28;20030;-47
2023/10/20 10:48:09;;;;;;;0.00;0.00;;;;;;;19.75;100.00;95770.91;5074738;28;20060;-47
2023/10/20 10:50:40;;;;;;;0.00;0.00;;;;;;;20.25;100.00;95803.66;5074739;28;20024;-47
2023/10/20 10:53:07;;;;;;;0.00;0.00;;;;;;;20.48;100.00;95792.53;5056740;28;20029;-47
2023/10/20 10:55:35;;;;;;;0.00;0.00;;;;;;;20.64;100.00;95779.34;5074613;28;20021;-47
2023/10/20 10:58:06;;;;;;;0.00;0.00;;;;;;;20.81;100.00;95792.41;5057088;28;20529;-47
2023/10/20 11:00:32;;;;;;;0.00;0.00;;;;;;;20.88;100.00;95800.59;5056558;28;20119;-47
2023/10/20 11:02:59;;;;;;;0.00;0.00;;;;;;;20.61;100.00;95764.03;5074469;28;20078;-47
2023/10/20 11:05:25;;;;;;;0.10;0.10;;;;;;;20.12;100.00;95759.50;5074403;28;20020;-46
2023/10/20 11:07:59;;;;;;;0.00;0.00;;;;;;;19.85;100.00;95764.38;5074266;28;20497;-47
2023/10/20 11:10:28;;;;;;;0.00;0.00;;;;;;;20.37;100.00;95773.59;5074114;28;20089;-47
2023/10/20 11:12:56;;;;;;;0.00;0.00;;;;;;;20.77;100.00;95770.19;5056314;28;20025;-46
2023/10/20 11:15:25;;;;;;;0.00;0.00;;;;;;;21.03;100.00;95753.78;5056146;28;20032;-46
2023/10/20 11:17:51;;;;;;;0.00;0.00;;;;;;;21.23;100.00;95760.03;5056410;28;20039;-47
2023/10/20 11:20:20;;;;;;;0.00;0.00;;;;;;;21.65;100.00;95761.47;5054775;28;20033;-47
2023/10/20 11:22:51;;;;;;;0.00;0.00;;;;;;;21.91;100.00;95729.69;5074145;28;20017;-46
2023/10/20 11:25:21;;;;;;;0.00;0.00;;;;;;;21.80;100.00;95759.94;5074068;28;20032;-47
2023/10/20 11:27:54;;;;;;;0.00;0.00;;;;;;;21.96;100.00;95750.00;5073876;28;20035;-47
2023/10/20 11:30:31;;;;;;;0.00;0.00;;;;;;;21.73;98.88;95763.19;5074234;28;20430;-47
2023/10/20 11:32:57;;;;;;;0.00;0.00;;;;;;;21.78;96.63;95746.91;5056160;28;20028;-46
2023/10/20 11:35:27;;;;;;;0.00;0.00;;;;;;;21.98;100.00;95766.47;5073884;28;20032;-46
2023/10/20 11:37:54;;;;;;;0.00;0.00;;;;;;;22.53;100.00;95769.22;5073902;28;20024;-47
2023/10/20 11:40:21;;;;;;;0.00;0.00;;;;;;;22.99;99.06;95758.69;5074017;28;20021;-47
2023/10/20 11:42:48;;;;;;;0.00;0.00;;;;;;;23.50;100.00;95757.72;5073708;28;20016;-47
2023/10/20 11:45:14;;;;;;;0.00;0.00;;;;;;;23.45;98.78;95758.03;5073583;28;20034;-47
2023/10/20 11:47:40;;;;;;;0.00;0.00;;;;;;;23.78;98.14;95748.66;5055610;28;20106;-47
2023/10/20 11:50:18;;;;;;;0.00;0.00;;;;;;;23.80;87.13;95757.88;5055620;28;20123;-47
2023/10/20 11:52:45;;;;;;;0.00;0.00;;;;;;;24.13;96.76;95743.09;5055516;28;20039;-47
2023/10/20 11:55:11;;;;;;;0.00;0.00;;;;;;;24.46;89.68;95734.34;5073689;28;20035;-47
2023/10/20 11:57:40;;;;;;;0.00;0.00;;;;;;;24.47;82.51;95738.59;5073420;28;20031;-47
2023/10/20 12:00:09;;;;;;;0.00;0.00;;;;;;;24.26;84.65;95732.94;5073359;28;20513;-47
2023/10/20 12:02:40;;;;;;;0.00;0.00;;;;;;;24.25;89.72;95736.75;5073288;28;20082;-47
2023/10/20 12:05:07;;;;;;;0.00;0.00;;;;;;;24.57;94.18;95717.66;5073500;28;20031;-47
2023/10/20 12:07:33;;;;;;;0.00;0.00;;;;;;;24.51;79.46;95720.66;5055178;28;20086;-47
2023/10/20 12:09:59;;;;;;;0.00;0.00;;;;;;;24.31;79.73;95732.63;5072844;28;20056;-47